sensor_id;sensor_type;location;lat;lon;timestamp;pressure;altitude;pressure_sealevel;temperature;humidity
70370;BME280;57790;51.356;-2.906;2023-04-15T00:00:14;101340.03;;;8.42;100.00
70370;BME280;57790;51.356;-2.906;2023-04-15T00:03:15;101345.19;;;8.44;100.00
70370;BME280;57790;51.356;-2.906;2023-04-15T00:06:15;101354.50;;;8.48;100.00
70370;BME280;57790;51.356;-2.906;2023-04-15T00:09:16;101357.69;;;8.42;100.00
70370;BME280;57790;51.356;-2.906;2023-04-15T00:12:16;101361.16;;;8.42;100.00
70370;BME280;57790;51.356;-2.906;2023-04-15T00:15:17;101360.59;;;8.39;100.00
70370;BME280;57790;51.356;-2.906;2023-04-15T00:18:23;101363.63;;;8.34;100.00
70370;BME280;57790;51.356;-2.906;2023-04-15T00:21:26;101364.47;;;8.34;100.00
70370;BME280;57790;51.356;-2.906;2023-04-15T00:24:28;101369.63;;;8.36;100.00
70370;BME280;57790;51.356;-2.906;2023-04-15T00:27:29;101375.41;;;8.30;100.00
70370;BME280;57790;51.356;-2.906;2023-04-15T00:30:30;101372.75;;;8.30;100.00
70370;BME280;57790;51.356;-2.906;2023-04-15T00:33:30;101378.03;;;8.30;100.00
70370;BME280;57790;51.356;-2.906;2023-04-15T00:36:31;101374.56;;;8.29;100.00
70370;BME280;57790;51.356;-2.906;2023-04-15T00:39:33;101379.16;;;8.27;100.00
70370;BME280;57790;51.356;-2.906;2023-04-15T00:42:33;101384.66;;;8.24;100.00
70370;BME280;57790;51.356;-2.906;2023-04-15T00:45:34;101392.34;;;8.27;100.00
70370;BME280;57790;51.356;-2.906;2023-04-15T00:48:35;101395.69;;;8.29;100.00
70370;BME280;57790;51.356;-2.906;2023-04-15T00:51:36;101395.22;;;8.24;100.00
70370;BME280;57790;51.356;-2.906;2023-04-15T00:54:36;101403.56;;;8.20;100.00
70370;BME280;57790;51.356;-2.906;2023-04-15T00:57:38;101402.59;;;8.21;100.00
70370;BME280;57790;51.356;-2.906;2023-04-15T01:00:39;101417.75;;;8.19;100.00
70370;BME280;57790;51.356;-2.906;2023-04-15T01:03:40;101423.16;;;8.17;100.00
70370;BME280;57790;51.356;-2.906;2023-04-15T01:06:41;101431.91;;;8.18;100.00
70370;BME280;57790;51.356;-2.906;2023-04-15T01:09:41;101430.25;;;8.17;100.00
70370;BME280;57790;51.356;-2.906;2023-04-15T01:12:42;101436.63;;;8.14;100.00
70370;BME280;57790;51.356;-2.906;2023-04-15T01:15:44;101442.88;;;8.13;100.00
70370;BME280;57790;51.356;-2.906;2023-04-15T01:18:47;101454.53;;;8.11;100.00
70370;BME280;57790;51.356;-2.906;2023-04-15T01:21:48;101464.13;;;8.12;100.00
70370;BME280;57790;51.356;-2.906;2023-04-15T01:28:19;101472.41;;;8.07;100.00
70370;BME280;57790;51.356;-2.906;2023-04-15T01:31:19;101469.19;;;8.03;100.00
70370;BME280;57790;51.356;-2.906;2023-04-15T01:34:20;101482.66;;;8.00;100.00
70370;BME280;57790;51.356;-2.906;2023-04-15T01:37:21;101485.19;;;8.02;100.00
70370;BME280;57790;51.356;-2.906;2023-04-15T01:40:21;101491.41;;;8.01;100.00
70370;BME280;57790;51.356;-2.906;2023-04-15T01:43:22;101493.94;;;8.02;100.00
70370;BME280;57790;51.356;-2.906;2023-04-15T01:46:22;101498.38;;;8.02;100.00
70370;BME280;57790;51.356;-2.906;2023-04-15T01:49:23;101500.31;;;8.00;100.00
70370;BME280;57790;51.356;-2.906;2023-04-15T01:52:23;101496.00;;;7.99;100.00
70370;BME280;57790;51.356;-2.906;2023-04-15T01:55:24;101500.66;;;7.95;100.00
70370;BME280;57790;51.356;-2.906;2023-04-15T01:58:24;101494.31;;;7.98;100.00
70370;BME280;57790;51.356;-2.906;2023-04-15T02:01:25;101499.84;;;7.95;100.00
70370;BME280;57790;51.356;-2.906;2023-04-15T02:04:26;101505.00;;;7.96;100.00
70370;BME280;57790;51.356;-2.906;2023-04-15T02:07:27;101507.75;;;7.95;100.00
70370;BME280;57790;51.356;-2.906;2023-04-15T02:10:31;101511.50;;;7.92;100.00
70370;BME280;57790;51.356;-2.906;2023-04-15T02:13:31;101514.50;;;7.88;100.00
70370;BME280;57790;51.356;-2.906;2023-04-15T02:16:32;101509.94;;;7.90;100.00
70370;BME280;57790;51.356;-2.906;2023-04-15T02:19:33;101513.41;;;7.90;100.00
70370;BME280;57790;51.356;-2.906;2023-04-15T02:22:34;101512.72;;;7.88;100.00
70370;BME280;57790;51.356;-2.906;2023-04-15T02:25:34;101521.59;;;7.87;100.00
70370;BME280;57790;51.356;-2.906;2023-04-15T02:28:36;101526.16;;;7.85;100.00
70370;BME280;57790;51.356;-2.906;2023-04-15T02:31:36;101529.50;;;7.87;100.00
70370;BME280;57790;51.356;-2.906;2023-04-15T02:34:39;101525.34;;;7.85;100.00
70370;BME280;57790;51.356;-2.906;2023-04-15T02:37:40;101528.09;;;7.83;100.00
70370;BME280;57790;51.356;-2.906;2023-04-15T02:40:42;101532.91;;;7.78;100.00
70370;BME280;57790;51.356;-2.906;2023-04-15T02:43:43;101532.91;;;7.78;100.00
70370;BME280;57790;51.356;-2.906;2023-04-15T02:46:43;101540.59;;;7.81;100.00
70370;BME280;57790;51.356;-2.906;2023-04-15T02:49:43;101537.22;;;7.79;100.00
70370;BME280;57790;51.356;-2.906;2023-04-15T02:52:44;101539.13;;;7.77;100.00
70370;BME280;57790;51.356;-2.906;2023-04-15T02:55:44;101546.09;;;7.78;100.00
70370;BME280;57790;51.356;-2.906;2023-04-15T02:58:45;101552.22;;;7.79;100.00
70370;BME280;57790;51.356;-2.906;2023-04-15T03:01:46;101557.88;;;7.74;100.00
70370;BME280;57790;51.356;-2.906;2023-04-15T03:04:46;101562.44;;;7.72;100.00
70370;BME280;57790;51.356;-2.906;2023-04-15T03:07:46;101569.66;;;7.70;100.00
70370;BME280;57790;51.356;-2.906;2023-04-15T03:10:47;101568.69;;;7.71;100.00
70370;BME280;57790;51.356;-2.906;2023-04-15T03:13:48;101572.16;;;7.71;100.00
70370;BME280;57790;51.356;-2.906;2023-04-15T03:16:48;101573.13;;;7.70;100.00
70370;BME280;57790;51.356;-2.906;2023-04-15T03:19:49;101586.31;;;7.70;100.00
70370;BME280;57790;51.356;-2.906;2023-04-15T03:22:50;101576.09;;;7.66;100.00
70370;BME280;57790;51.356;-2.906;2023-04-15T03:25:50;101593.75;;;7.65;100.00
70370;BME280;57790;51.356;-2.906;2023-04-15T03:28:50;101598.44;;;7.62;100.00
70370;BME280;57790;51.356;-2.906;2023-04-15T03:31:51;101606.47;;;7.60;100.00
70370;BME280;57790;51.356;-2.906;2023-04-15T03:34:51;101611.75;;;7.60;100.00
70370;BME280;57790;51.356;-2.906;2023-04-15T03:37:52;101607.31;;;7.61;100.00
70370;BME280;57790;51.356;-2.906;2023-04-15T03:40:52;101609.22;;;7.59;100.00
70370;BME280;57790;51.356;-2.906;2023-04-15T03:43:53;101616.44;;;7.57;100.00
70370;BME280;57790;51.356;-2.906;2023-04-15T03:46:53;101613.22;;;7.53;100.00
70370;BME280;57790;51.356;-2.906;2023-04-15T03:49:53;101629.03;;;7.53;100.00
70370;BME280;57790;51.356;-2.906;2023-04-15T03:52:54;101616.06;;;7.50;100.00
70370;BME280;57790;51.356;-2.906;2023-04-15T03:55:54;101621.34;;;7.50;100.00
70370;BME280;57790;51.356;-2.906;2023-04-15T03:58:55;101629.38;;;7.49;100.00
70370;BME280;57790;51.356;-2.906;2023-04-15T04:01:55;101638.25;;;7.47;100.00
70370;BME280;57790;51.356;-2.906;2023-04-15T04:04:56;101636.47;;;7.48;100.00
70370;BME280;57790;51.356;-2.906;2023-04-15T04:07:56;101647.25;;;7.45;100.00
70370;BME280;57790;51.356;-2.906;2023-04-15T04:10:56;101647.63;;;7.40;100.00
70370;BME280;57790;51.356;-2.906;2023-04-15T04:13:57;101652.28;;;7.37;100.00
70370;BME280;57790;51.356;-2.906;2023-04-15T04:16:58;101645.94;;;7.39;100.00
70370;BME280;57790;51.356;-2.906;2023-04-15T04:19:58;101652.41;;;7.35;100.00
70370;BME280;57790;51.356;-2.906;2023-04-15T04:22:58;101643.66;;;7.35;100.00
70370;BME280;57790;51.356;-2.906;2023-04-15T04:25:59;101649.03;;;7.33;100.00
70370;BME280;57790;51.356;-2.906;2023-04-15T04:29:00;101660.56;;;7.32;100.00
70370;BME280;57790;51.356;-2.906;2023-04-15T04:32:00;101664.88;;;7.33;100.00
70370;BME280;57790;51.356;-2.906;2023-04-15T04:35:01;101662.22;;;7.33;100.00
70370;BME280;57790;51.356;-2.906;2023-04-15T04:38:01;101661.63;;;7.30;100.00
70370;BME280;57790;51.356;-2.906;2023-04-15T04:41:01;101673.25;;;7.27;100.00
70370;BME280;57790;51.356;-2.906;2023-04-15T04:44:02;101672.53;;;7.25;100.00
70370;BME280;57790;51.356;-2.906;2023-04-15T04:47:02;101685.84;;;7.24;100.00
70370;BME280;57790;51.356;-2.906;2023-04-15T04:50:03;101687.97;;;7.19;100.00
70370;BME280;57790;51.356;-2.906;2023-04-15T04:53:04;101697.69;;;7.18;100.00
70370;BME280;57790;51.356;-2.906;2023-04-15T04:56:04;101710.03;;;7.18;100.00
70370;BME280;57790;51.356;-2.906;2023-04-15T04:59:05;101700.31;;;7.18;100.00
70370;BME280;57790;51.356;-2.906;2023-04-15T05:02:06;101708.34;;;7.16;100.00
70370;BME280;57790;51.356;-2.906;2023-04-15T05:05:06;101719.16;;;7.13;100.00
70370;BME280;57790;51.356;-2.906;2023-04-15T05:08:07;101723.56;;;7.13;100.00
70370;BME280;57790;51.356;-2.906;2023-04-15T05:11:08;101731.50;;;7.13;100.00
70370;BME280;57790;51.356;-2.906;2023-04-15T05:14:08;101735.81;;;7.14;100.00
70370;BME280;57790;51.356;-2.906;2023-04-15T05:17:09;101736.25;;;7.08;100.00
70370;BME280;57790;51.356;-2.906;2023-04-15T05:20:10;101740.31;;;7.01;100.00
70370;BME280;57790;51.356;-2.906;2023-04-15T05:23:11;101760.31;;;7.03;100.00
70370;BME280;57790;51.356;-2.906;2023-04-15T05:26:12;101758.66;;;7.02;100.00
70370;BME280;57790;51.356;-2.906;2023-04-15T05:29:12;101769.31;;;7.01;100.00
70370;BME280;57790;51.356;-2.906;2023-04-15T05:32:12;101767.41;;;7.03;100.00
70370;BME280;57790;51.356;-2.906;2023-04-15T05:35:13;101774.47;;;7.02;100.00
70370;BME280;57790;51.356;-2.906;2023-04-15T05:38:13;101770.25;;;7.00;100.00
70370;BME280;57790;51.356;-2.906;2023-04-15T05:41:14;101779.13;;;6.99;100.00
70370;BME280;57790;51.356;-2.906;2023-04-15T05:44:15;101793.28;;;6.98;100.00
70370;BME280;57790;51.356;-2.906;2023-04-15T05:47:15;101791.72;;;6.95;100.00
70370;BME280;57790;51.356;-2.906;2023-04-15T05:50:16;101801.28;;;6.96;100.00
70370;BME280;57790;51.356;-2.906;2023-04-15T05:53:16;101805.81;;;6.94;100.00
70370;BME280;57790;51.356;-2.906;2023-04-15T05:56:17;101806.69;;;6.95;100.00
70370;BME280;57790;51.356;-2.906;2023-04-15T05:59:17;101815.31;;;6.97;100.00
70370;BME280;57790;51.356;-2.906;2023-04-15T06:02:18;101828.16;;;7.01;100.00
70370;BME280;57790;51.356;-2.906;2023-04-15T06:05:18;101835.22;;;7.01;100.00
70370;BME280;57790;51.356;-2.906;2023-04-15T06:08:19;101837.75;;;7.02;100.00
70370;BME280;57790;51.356;-2.906;2023-04-15T06:11:19;101856.06;;;7.04;100.00
70370;BME280;57790;51.356;-2.906;2023-04-15T06:14:21;101856.69;;;7.07;100.00
70370;BME280;57790;51.356;-2.906;2023-04-15T06:17:21;101867.47;;;7.04;100.00
70370;BME280;57790;51.356;-2.906;2023-04-15T06:20:23;101874.19;;;7.08;100.00
70370;BME280;57790;51.356;-2.906;2023-04-15T06:23:23;101872.31;;;7.10;100.00
70370;BME280;57790;51.356;-2.906;2023-04-15T06:26:24;101884.06;;;7.18;100.00
70370;BME280;57790;51.356;-2.906;2023-04-15T06:29:25;101888.00;;;7.12;100.00
70370;BME280;57790;51.356;-2.906;2023-04-15T06:32:26;101887.56;;;7.18;100.00
70370;BME280;57790;51.356;-2.906;2023-04-15T06:35:26;101895.47;;;7.18;100.00
70370;BME280;57790;51.356;-2.906;2023-04-15T06:38:26;101900.72;;;7.18;100.00
70370;BME280;57790;51.356;-2.906;2023-04-15T06:41:27;101906.84;;;7.19;100.00
70370;BME280;57790;51.356;-2.906;2023-04-15T06:44:28;101909.25;;;7.22;100.00
70370;BME280;57790;51.356;-2.906;2023-04-15T06:47:28;101926.88;;;7.21;100.00
70370;BME280;57790;51.356;-2.906;2023-04-15T06:50:29;101925.91;;;7.22;100.00
70370;BME280;57790;51.356;-2.906;2023-04-15T06:53:29;101933.63;;;7.25;100.00
70370;BME280;57790;51.356;-2.906;2023-04-15T06:56:31;101940.59;;;7.26;100.00
70370;BME280;57790;51.356;-2.906;2023-04-15T06:59:31;101953.56;;;7.29;100.00
70370;BME280;57790;51.356;-2.906;2023-04-15T07:02:32;101957.63;;;7.33;100.00
70370;BME280;57790;51.356;-2.906;2023-04-15T07:05:32;101958.25;;;7.37;100.00
70370;BME280;57790;51.356;-2.906;2023-04-15T07:08:33;101963.22;;;7.41;100.00
70370;BME280;57790;51.356;-2.906;2023-04-15T07:11:33;101974.25;;;7.46;100.00
70370;BME280;57790;51.356;-2.906;2023-04-15T07:14:34;101971.28;;;7.51;100.00
70370;BME280;57790;51.356;-2.906;2023-04-15T07:17:34;101980.34;;;7.60;100.00
70370;BME280;57790;51.356;-2.906;2023-04-15T07:20:37;101974.81;;;7.63;100.00
70370;BME280;57790;51.356;-2.906;2023-04-15T07:23:41;101982.19;;;7.70;100.00
70370;BME280;57790;51.356;-2.906;2023-04-15T07:26:41;101977.28;;;7.77;100.00
70370;BME280;57790;51.356;-2.906;2023-04-15T07:29:41;101989.31;;;7.81;100.00
70370;BME280;57790;51.356;-2.906;2023-04-15T07:32:42;101997.72;;;7.86;100.00
70370;BME280;57790;51.356;-2.906;2023-04-15T07:35:42;101998.47;;;7.88;100.00
70370;BME280;57790;51.356;-2.906;2023-04-15T07:38:44;102010.94;;;7.86;100.00
70370;BME280;57790;51.356;-2.906;2023-04-15T07:41:44;102019.34;;;7.91;100.00
70370;BME280;57790;51.356;-2.906;2023-04-15T07:44:45;102022.81;;;7.92;100.00
70370;BME280;57790;51.356;-2.906;2023-04-15T07:47:46;102026.31;;;7.92;100.00
70370;BME280;57790;51.356;-2.906;2023-04-15T07:50:47;102028.72;;;7.95;100.00
70370;BME280;57790;51.356;-2.906;2023-04-15T07:53:48;102035.72;;;7.96;100.00
70370;BME280;57790;51.356;-2.906;2023-04-15T07:56:49;102035.47;;;7.99;100.00
70370;BME280;57790;51.356;-2.906;2023-04-15T07:59:50;102029.84;;;8.04;100.00
70370;BME280;57790;51.356;-2.906;2023-04-15T08:02:50;102046.41;;;8.06;100.00
70370;BME280;57790;51.356;-2.906;2023-04-15T08:05:52;102045.25;;;8.10;100.00
70370;BME280;57790;51.356;-2.906;2023-04-15T08:08:53;102049.34;;;8.14;100.00
70370;BME280;57790;51.356;-2.906;2023-04-15T08:11:54;102063.16;;;8.18;100.00
70370;BME280;57790;51.356;-2.906;2023-04-15T08:14:56;102055.84;;;8.21;100.00
70370;BME280;57790;51.356;-2.906;2023-04-15T08:17:56;102063.44;;;8.26;100.00
70370;BME280;57790;51.356;-2.906;2023-04-15T08:21:03;102065.13;;;8.27;100.00
70370;BME280;57790;51.356;-2.906;2023-04-15T08:24:04;102078.31;;;8.27;100.00
70370;BME280;57790;51.356;-2.906;2023-04-15T08:27:06;102081.69;;;8.29;100.00
70370;BME280;57790;51.356;-2.906;2023-04-15T08:30:07;102083.25;;;8.31;100.00
70370;BME280;57790;51.356;-2.906;2023-04-15T08:33:08;102088.94;;;8.38;100.00
70370;BME280;57790;51.356;-2.906;2023-04-15T08:36:08;102087.91;;;8.41;100.00
70370;BME280;57790;51.356;-2.906;2023-04-15T08:39:09;102093.78;;;8.44;100.00
70370;BME280;57790;51.356;-2.906;2023-04-15T08:42:16;102099.56;;;8.49;100.00
70370;BME280;57790;51.356;-2.906;2023-04-15T08:45:17;102106.66;;;8.49;100.00
70370;BME280;57790;51.356;-2.906;2023-04-15T08:48:18;102107.25;;;8.52;100.00
70370;BME280;57790;51.356;-2.906;2023-04-15T08:51:19;102114.00;;;8.56;100.00
70370;BME280;57790;51.356;-2.906;2023-04-15T08:54:20;102127.00;;;8.59;100.00
70370;BME280;57790;51.356;-2.906;2023-04-15T08:57:20;102120.38;;;8.65;100.00
70370;BME280;57790;51.356;-2.906;2023-04-15T09:00:22;102117.63;;;8.67;100.00
70370;BME280;57790;51.356;-2.906;2023-04-15T09:03:23;102128.97;;;8.69;100.00
70370;BME280;57790;51.356;-2.906;2023-04-15T09:06:24;102131.00;;;8.76;100.00
70370;BME280;57790;51.356;-2.906;2023-04-15T09:09:26;102130.88;;;8.78;100.00
70370;BME280;57790;51.356;-2.906;2023-04-15T09:12:26;102140.25;;;8.82;100.00
70370;BME280;57790;51.356;-2.906;2023-04-15T09:15:27;102147.59;;;8.78;100.00
70370;BME280;57790;51.356;-2.906;2023-04-15T09:18:33;102153.16;;;8.86;100.00
70370;BME280;57790;51.356;-2.906;2023-04-15T09:21:34;102152.56;;;8.94;100.00
70370;BME280;57790;51.356;-2.906;2023-04-15T09:24:37;102156.88;;;8.95;100.00
70370;BME280;57790;51.356;-2.906;2023-04-15T09:28:07;102161.97;;;8.98;100.00
70370;BME280;57790;51.356;-2.906;2023-04-15T09:31:07;102168.94;;;8.99;100.00
70370;BME280;57790;51.356;-2.906;2023-04-15T09:34:09;102171.56;;;9.10;100.00
70370;BME280;57790;51.356;-2.906;2023-04-15T09:37:09;102176.88;;;9.10;100.00
70370;BME280;57790;51.356;-2.906;2023-04-15T09:40:10;102175.34;;;9.19;100.00
70370;BME280;57790;51.356;-2.906;2023-04-15T09:43:11;102179.22;;;9.26;100.00
70370;BME280;57790;51.356;-2.906;2023-04-15T09:46:16;102179.94;;;9.28;100.00
70370;BME280;57790;51.356;-2.906;2023-04-15T09:49:17;102188.09;;;9.36;100.00
70370;BME280;57790;51.356;-2.906;2023-04-15T09:52:17;102192.09;;;9.42;100.00
70370;BME280;57790;51.356;-2.906;2023-04-15T09:55:17;102191.72;;;9.46;100.00
70370;BME280;57790;51.356;-2.906;2023-04-15T09:58:28;102199.06;;;9.54;100.00
70370;BME280;57790;51.356;-2.906;2023-04-15T10:01:30;102202.44;;;9.56;100.00
70370;BME280;57790;51.356;-2.906;2023-04-15T10:04:33;102202.44;;;9.67;100.00
70370;BME280;57790;51.356;-2.906;2023-04-15T10:07:34;102206.44;;;9.73;100.00
70370;BME280;57790;51.356;-2.906;2023-04-15T10:10:35;102214.59;;;9.81;100.00
70370;BME280;57790;51.356;-2.906;2023-04-15T10:13:36;102214.59;;;9.81;100.00
70370;BME280;57790;51.356;-2.906;2023-04-15T10:16:39;102219.41;;;9.87;100.00
70370;BME280;57790;51.356;-2.906;2023-04-15T10:19:42;102217.94;;;9.94;100.00
70370;BME280;57790;51.356;-2.906;2023-04-15T10:22:44;102217.50;;;10.00;100.00
70370;BME280;57790;51.356;-2.906;2023-04-15T10:25:51;102219.75;;;10.05;100.00
70370;BME280;57790;51.356;-2.906;2023-04-15T10:28:53;102221.06;;;10.10;100.00
70370;BME280;57790;51.356;-2.906;2023-04-15T10:31:55;102220.09;;;10.11;100.00
70370;BME280;57790;51.356;-2.906;2023-04-15T10:34:56;102218.44;;;10.22;100.00
70370;BME280;57790;51.356;-2.906;2023-04-15T10:37:57;102226.47;;;10.20;100.00
70370;BME280;57790;51.356;-2.906;2023-04-15T10:41:17;102232.06;;;10.28;100.00
70370;BME280;57790;51.356;-2.906;2023-04-15T10:44:19;102234.31;;;10.33;100.00
70370;BME280;57790;51.356;-2.906;2023-04-15T10:47:20;102237.81;;;10.33;100.00
70370;BME280;57790;51.356;-2.906;2023-04-15T10:50:21;102239.25;;;10.37;100.00
70370;BME280;57790;51.356;-2.906;2023-04-15T10:53:27;102236.81;;;10.46;100.00
70370;BME280;57790;51.356;-2.906;2023-04-15T10:56:29;102241.28;;;10.45;100.00
70370;BME280;57790;51.356;-2.906;2023-04-15T10:59:30;102240.91;;;10.50;100.00
70370;BME280;57790;51.356;-2.906;2023-04-15T11:05:56;102239.78;;;10.63;100.00
70370;BME280;57790;51.356;-2.906;2023-04-15T11:08:58;102234.78;;;10.70;100.00
70370;BME280;57790;51.356;-2.906;2023-04-15T11:12:08;102232.63;;;10.75;100.00
70370;BME280;57790;51.356;-2.906;2023-04-15T11:18:33;102237.16;;;10.84;100.00
70370;BME280;57790;51.356;-2.906;2023-04-15T11:21:34;102247.28;;;10.90;100.00
70370;BME280;57790;51.356;-2.906;2023-04-15T11:24:35;102242.41;;;10.95;100.00
70370;BME280;57790;51.356;-2.906;2023-04-15T11:27:36;102242.06;;;11.00;100.00
70370;BME280;57790;51.356;-2.906;2023-04-15T11:30:38;102243.22;;;11.07;100.00
70370;BME280;57790;51.356;-2.906;2023-04-15T11:33:55;102245.94;;;11.17;100.00
70370;BME280;57790;51.356;-2.906;2023-04-15T11:36:57;102247.50;;;11.19;100.00
70370;BME280;57790;51.356;-2.906;2023-04-15T11:39:57;102246.13;;;11.25;100.00
70370;BME280;57790;51.356;-2.906;2023-04-15T11:46:10;102259.59;;;11.33;100.00
70370;BME280;57790;51.356;-2.906;2023-04-15T11:49:11;102256.16;;;11.42;100.00
70370;BME280;57790;51.356;-2.906;2023-04-15T11:52:24;102264.44;;;11.49;100.00
70370;BME280;57790;51.356;-2.906;2023-04-15T11:55:25;102260.28;;;11.56;100.00
70370;BME280;57790;51.356;-2.906;2023-04-15T11:58:28;102263.97;;;11.65;100.00
70370;BME280;57790;51.356;-2.906;2023-04-15T12:01:36;102268.66;;;11.72;100.00
70370;BME280;57790;51.356;-2.906;2023-04-15T12:04:38;102273.13;;;11.72;100.00
70370;BME280;57790;51.356;-2.906;2023-04-15T12:07:58;102277.88;;;11.78;100.00
70370;BME280;57790;51.356;-2.906;2023-04-15T12:10:59;102274.47;;;11.87;100.00
70370;BME280;57790;51.356;-2.906;2023-04-15T12:14:11;102285.28;;;11.95;100.00
70370;BME280;57790;51.356;-2.906;2023-04-15T12:17:11;102285.69;;;12.00;100.00
70370;BME280;57790;51.356;-2.906;2023-04-15T12:20:12;102292.59;;;12.03;100.00
70370;BME280;57790;51.356;-2.906;2023-04-15T12:23:12;102295.53;;;12.09;100.00
70370;BME280;57790;51.356;-2.906;2023-04-15T12:26:13;102295.72;;;12.17;100.00
70370;BME280;57790;51.356;-2.906;2023-04-15T12:29:14;102296.72;;;12.26;100.00
70370;BME280;57790;51.356;-2.906;2023-04-15T12:32:16;102292.38;;;12.25;100.00
70370;BME280;57790;51.356;-2.906;2023-04-15T12:35:19;102296.72;;;12.26;100.00
70370;BME280;57790;51.356;-2.906;2023-04-15T12:38:20;102297.47;;;12.38;100.00
70370;BME280;57790;51.356;-2.906;2023-04-15T12:41:21;102291.47;;;12.45;100.00
70370;BME280;57790;51.356;-2.906;2023-04-15T12:44:23;102302.13;;;12.55;100.00
70370;BME280;57790;51.356;-2.906;2023-04-15T12:47:24;102303.41;;;12.61;100.00
70370;BME280;57790;51.356;-2.906;2023-04-15T12:50:25;102307.75;;;12.71;100.00
70370;BME280;57790;51.356;-2.906;2023-04-15T12:53:26;102319.81;;;12.85;100.00
70370;BME280;57790;51.356;-2.906;2023-04-15T12:56:27;102319.69;;;12.96;100.00
70370;BME280;57790;51.356;-2.906;2023-04-15T12:59:28;102318.16;;;13.03;100.00
70370;BME280;57790;51.356;-2.906;2023-04-15T13:02:28;102322.78;;;13.11;100.00
70370;BME280;57790;51.356;-2.906;2023-04-15T13:05:29;102320.16;;;13.21;100.00
70370;BME280;57790;51.356;-2.906;2023-04-15T13:08:29;102320.44;;;13.27;100.00
70370;BME280;57790;51.356;-2.906;2023-04-15T13:11:30;102323.09;;;13.27;100.00
70370;BME280;57790;51.356;-2.906;2023-04-15T13:14:32;102328.00;;;13.32;100.00
70370;BME280;57790;51.356;-2.906;2023-04-15T13:17:33;102326.84;;;13.44;100.00
70370;BME280;57790;51.356;-2.906;2023-04-15T13:20:33;102332.75;;;13.48;100.00
70370;BME280;57790;51.356;-2.906;2023-04-15T13:23:33;102329.91;;;13.59;100.00
70370;BME280;57790;51.356;-2.906;2023-04-15T13:26:34;102337.34;;;13.65;100.00
70370;BME280;57790;51.356;-2.906;2023-04-15T13:29:35;102340.88;;;13.65;100.00
70370;BME280;57790;51.356;-2.906;2023-04-15T13:32:35;102340.56;;;13.78;100.00
70370;BME280;57790;51.356;-2.906;2023-04-15T13:35:36;102345.00;;;13.87;100.00
70370;BME280;57790;51.356;-2.906;2023-04-15T13:38:36;102348.78;;;13.94;100.00
70370;BME280;57790;51.356;-2.906;2023-04-15T13:41:37;102347.94;;;14.04;100.00
70370;BME280;57790;51.356;-2.906;2023-04-15T13:44:37;102352.53;;;14.11;100.00
70370;BME280;57790;51.356;-2.906;2023-04-15T13:47:39;102352.81;;;14.18;100.00
70370;BME280;57790;51.356;-2.906;2023-04-15T13:50:39;102362.19;;;14.22;100.00
70370;BME280;57790;51.356;-2.906;2023-04-15T13:53:44;102360.22;;;14.24;100.00
70370;BME280;57790;51.356;-2.906;2023-04-15T13:56:44;102369.59;;;14.28;100.00
70370;BME280;57790;51.356;-2.906;2023-04-15T13:59:45;102367.59;;;14.30;100.00
70370;BME280;57790;51.356;-2.906;2023-04-15T14:02:45;102367.47;;;14.32;100.00
70370;BME280;57790;51.356;-2.906;2023-04-15T14:05:45;102359.88;;;14.37;100.00
70370;BME280;57790;51.356;-2.906;2023-04-15T14:08:46;102366.06;;;14.37;100.00
70370;BME280;57790;51.356;-2.906;2023-04-15T14:11:46;102363.91;;;14.41;100.00
70370;BME280;57790;51.356;-2.906;2023-04-15T14:14:47;102368.84;;;14.45;100.00
70370;BME280;57790;51.356;-2.906;2023-04-15T14:17:47;102362.47;;;14.56;100.00
70370;BME280;57790;51.356;-2.906;2023-04-15T14:20:48;102353.88;;;14.62;100.00
70370;BME280;57790;51.356;-2.906;2023-04-15T14:23:48;102354.41;;;14.66;100.00
70370;BME280;57790;51.356;-2.906;2023-04-15T14:26:48;102355.09;;;14.68;100.00
70370;BME280;57790;51.356;-2.906;2023-04-15T14:29:49;102352.13;;;14.71;100.00
70370;BME280;57790;51.356;-2.906;2023-04-15T14:32:49;102357.72;;;14.77;100.00
70370;BME280;57790;51.356;-2.906;2023-04-15T14:35:50;102366.50;;;14.87;100.00
70370;BME280;57790;51.356;-2.906;2023-04-15T14:38:50;102367.97;;;15.00;100.00
70370;BME280;57790;51.356;-2.906;2023-04-15T14:41:51;102351.34;;;15.06;100.00
70370;BME280;57790;51.356;-2.906;2023-04-15T14:44:51;102367.75;;;15.11;100.00
70370;BME280;57790;51.356;-2.906;2023-04-15T14:47:52;102373.78;;;15.13;100.00
70370;BME280;57790;51.356;-2.906;2023-04-15T14:50:52;102380.66;;;15.15;100.00
70370;BME280;57790;51.356;-2.906;2023-04-15T14:53:53;102378.53;;;15.19;100.00
70370;BME280;57790;51.356;-2.906;2023-04-15T14:56:53;102381.22;;;15.19;100.00
70370;BME280;57790;51.356;-2.906;2023-04-15T14:59:54;102389.06;;;15.21;100.00
70370;BME280;57790;51.356;-2.906;2023-04-15T15:02:55;102398.06;;;15.20;100.00
70370;BME280;57790;51.356;-2.906;2023-04-15T15:05:56;102394.09;;;15.24;100.00
70370;BME280;57790;51.356;-2.906;2023-04-15T15:08:59;102396.63;;;15.25;100.00
70370;BME280;57790;51.356;-2.906;2023-04-15T15:12:01;102398.81;;;15.30;100.00
70370;BME280;57790;51.356;-2.906;2023-04-15T15:15:02;102393.47;;;15.30;100.00
70370;BME280;57790;51.356;-2.906;2023-04-15T15:18:04;102396.25;;;15.38;100.00
70370;BME280;57790;51.356;-2.906;2023-04-15T15:21:04;102403.25;;;15.39;100.00
70370;BME280;57790;51.356;-2.906;2023-04-15T15:24:05;102411.66;;;15.44;100.00
70370;BME280;57790;51.356;-2.906;2023-04-15T15:27:05;102418.16;;;15.41;100.00
70370;BME280;57790;51.356;-2.906;2023-04-15T15:30:06;102406.63;;;15.41;100.00
70370;BME280;57790;51.356;-2.906;2023-04-15T15:33:06;102407.13;;;15.44;100.00
70370;BME280;57790;51.356;-2.906;2023-04-15T15:36:08;102415.00;;;15.46;100.00
70370;BME280;57790;51.356;-2.906;2023-04-15T15:39:10;102412.19;;;15.47;100.00
70370;BME280;57790;51.356;-2.906;2023-04-15T15:42:10;102411.72;;;15.52;100.00